Terminal Aerodrome Forecast
Issued by NWS Portland, OR

Home | Current Version | Previous Version | Text Only | Print | Product List | Glossary On
Versions: 1 2 3 4 5 6 7 8 9 10 11 12 13 14 15 16 17 18
000
FTUS46 KPQR 171929 AAA
TAFEUG
TAF AMD
KEUG 171929Z 1719/1818 19010KT P6SM -RA SCT018 BKN025 OVC060
      TEMPO 1719/1722 -RA BKN018 OVC030
     FM180500 26011KT P6SM -SHRA SCT025 BKN045 BKN060
     FM180800 24005KT P6SM SCT010 SCT250
     FM181400 VRB03KT 3SM BR BKN007=

USA.gov is the U.S. government's official web portal to all federal, state and local government web resources and services.